sensor_id;sensor_type;location;lat;lon;timestamp;temperature;humidity
5492;DHT22;2768;53.540;10.224;2022-09-03T00:05:04;17.90;1.00
5492;DHT22;2768;53.540;10.224;2022-09-03T00:11:03;17.90;1.00
5492;DHT22;2768;53.540;10.224;2022-09-03T00:17:01;17.70;1.00
5492;DHT22;2768;53.540;10.224;2022-09-03T00:22:59;17.70;1.00
5492;DHT22;2768;53.540;10.224;2022-09-03T00:28:58;17.70;1.00
5492;DHT22;2768;53.540;10.224;2022-09-03T00:34:59;17.60;1.00
5492;DHT22;2768;53.540;10.224;2022-09-03T00:41:02;17.50;1.00
5492;DHT22;2768;53.540;10.224;2022-09-03T00:47:03;17.60;1.00
5492;DHT22;2768;53.540;10.224;2022-09-03T00:53:08;17.50;1.00
5492;DHT22;2768;53.540;10.224;2022-09-03T00:59:12;17.40;1.00
5492;DHT22;2768;53.540;10.224;2022-09-03T01:05:12;17.40;1.00
5492;DHT22;2768;53.540;10.224;2022-09-03T01:11:19;17.30;1.00
5492;DHT22;2768;53.540;10.224;2022-09-03T01:17:27;17.40;1.00
5492;DHT22;2768;53.540;10.224;2022-09-03T01:23:54;17.30;1.00
5492;DHT22;2768;53.540;10.224;2022-09-03T01:29:54;17.40;1.00
5492;DHT22;2768;53.540;10.224;2022-09-03T01:35:54;17.30;1.00
5492;DHT22;2768;53.540;10.224;2022-09-03T01:42:00;17.10;1.00
5492;DHT22;2768;53.540;10.224;2022-09-03T01:48:30;17.20;1.00
5492;DHT22;2768;53.540;10.224;2022-09-03T01:54:35;17.10;1.00
5492;DHT22;2768;53.540;10.224;2022-09-03T02:00:36;17.00;1.00
5492;DHT22;2768;53.540;10.224;2022-09-03T02:06:33;17.10;1.00
5492;DHT22;2768;53.540;10.224;2022-09-03T02:12:29;17.10;1.00
5492;DHT22;2768;53.540;10.224;2022-09-03T02:18:27;17.00;1.00
5492;DHT22;2768;53.540;10.224;2022-09-03T02:24:23;17.20;1.00
5492;DHT22;2768;53.540;10.224;2022-09-03T02:30:17;17.10;1.00
5492;DHT22;2768;53.540;10.224;2022-09-03T02:36:13;16.90;1.00
5492;DHT22;2768;53.540;10.224;2022-09-03T02:42:09;16.80;1.00
5492;DHT22;2768;53.540;10.224;2022-09-03T02:48:04;17.00;1.00
5492;DHT22;2768;53.540;10.224;2022-09-03T02:53:57;16.70;1.00
5492;DHT22;2768;53.540;10.224;2022-09-03T02:59:52;16.80;1.00
5492;DHT22;2768;53.540;10.224;2022-09-03T03:05:48;16.90;1.00
5492;DHT22;2768;53.540;10.224;2022-09-03T03:11:42;16.60;1.00
5492;DHT22;2768;53.540;10.224;2022-09-03T03:17:37;16.60;1.00
5492;DHT22;2768;53.540;10.224;2022-09-03T03:23:31;16.70;1.00
5492;DHT22;2768;53.540;10.224;2022-09-03T03:29:24;16.60;1.00
5492;DHT22;2768;53.540;10.224;2022-09-03T03:35:18;16.70;1.00
5492;DHT22;2768;53.540;10.224;2022-09-03T03:41:13;16.60;1.00
5492;DHT22;2768;53.540;10.224;2022-09-03T03:47:08;16.50;1.00
5492;DHT22;2768;53.540;10.224;2022-09-03T03:53:02;16.50;1.00
5492;DHT22;2768;53.540;10.224;2022-09-03T03:58:58;16.20;1.00
5492;DHT22;2768;53.540;10.224;2022-09-03T04:04:51;16.30;1.00
5492;DHT22;2768;53.540;10.224;2022-09-03T04:10:46;16.30;1.00
5492;DHT22;2768;53.540;10.224;2022-09-03T04:16:39;16.30;1.00
5492;DHT22;2768;53.540;10.224;2022-09-03T04:22:33;16.10;1.00
5492;DHT22;2768;53.540;10.224;2022-09-03T04:28:27;16.10;1.00
5492;DHT22;2768;53.540;10.224;2022-09-03T04:34:21;16.10;1.00
5492;DHT22;2768;53.540;10.224;2022-09-03T04:40:14;16.20;1.00
5492;DHT22;2768;53.540;10.224;2022-09-03T04:46:10;16.00;1.00
5492;DHT22;2768;53.540;10.224;2022-09-03T04:52:08;16.00;1.00
5492;DHT22;2768;53.540;10.224;2022-09-03T04:58:02;16.10;1.00
5492;DHT22;2768;53.540;10.224;2022-09-03T05:03:57;16.10;1.00
5492;DHT22;2768;53.540;10.224;2022-09-03T05:09:50;16.00;1.00
5492;DHT22;2768;53.540;10.224;2022-09-03T05:15:44;16.00;1.00
5492;DHT22;2768;53.540;10.224;2022-09-03T05:21:39;16.00;1.00
5492;DHT22;2768;53.540;10.224;2022-09-03T05:27:32;15.90;1.00
5492;DHT22;2768;53.540;10.224;2022-09-03T05:33:25;16.00;1.00
5492;DHT22;2768;53.540;10.224;2022-09-03T05:39:20;16.00;1.00
5492;DHT22;2768;53.540;10.224;2022-09-03T05:45:13;16.00;1.00
5492;DHT22;2768;53.540;10.224;2022-09-03T05:51:08;16.10;1.00
5492;DHT22;2768;53.540;10.224;2022-09-03T05:57:03;16.20;1.00
5492;DHT22;2768;53.540;10.224;2022-09-03T06:02:56;16.20;1.00
5492;DHT22;2768;53.540;10.224;2022-09-03T06:08:51;16.10;1.00
5492;DHT22;2768;53.540;10.224;2022-09-03T06:14:45;16.20;1.00
5492;DHT22;2768;53.540;10.224;2022-09-03T06:20:39;16.10;1.00
5492;DHT22;2768;53.540;10.224;2022-09-03T06:26:32;16.10;1.00
5492;DHT22;2768;53.540;10.224;2022-09-03T06:32:27;16.10;1.00
5492;DHT22;2768;53.540;10.224;2022-09-03T06:38:20;16.10;1.00
5492;DHT22;2768;53.540;10.224;2022-09-03T06:44:14;16.20;1.00
5492;DHT22;2768;53.540;10.224;2022-09-03T06:50:09;16.20;1.00
5492;DHT22;2768;53.540;10.224;2022-09-03T06:56:04;16.30;1.00
5492;DHT22;2768;53.540;10.224;2022-09-03T07:01:58;16.40;1.00
5492;DHT22;2768;53.540;10.224;2022-09-03T07:07:56;16.50;1.00
5492;DHT22;2768;53.540;10.224;2022-09-03T07:13:50;16.50;1.00
5492;DHT22;2768;53.540;10.224;2022-09-03T07:19:44;16.60;1.00
5492;DHT22;2768;53.540;10.224;2022-09-03T07:25:39;16.80;1.00
5492;DHT22;2768;53.540;10.224;2022-09-03T07:31:34;16.90;1.00
5492;DHT22;2768;53.540;10.224;2022-09-03T07:37:27;17.00;1.00
5492;DHT22;2768;53.540;10.224;2022-09-03T07:43:22;17.30;1.00
5492;DHT22;2768;53.540;10.224;2022-09-03T07:49:15;17.40;1.00
5492;DHT22;2768;53.540;10.224;2022-09-03T07:55:09;17.50;1.00
5492;DHT22;2768;53.540;10.224;2022-09-03T08:01:06;17.70;1.00
5492;DHT22;2768;53.540;10.224;2022-09-03T08:07:02;17.80;1.00
5492;DHT22;2768;53.540;10.224;2022-09-03T08:12:55;18.00;1.00
5492;DHT22;2768;53.540;10.224;2022-09-03T08:18:50;18.00;1.00
5492;DHT22;2768;53.540;10.224;2022-09-03T08:24:44;18.30;1.00
5492;DHT22;2768;53.540;10.224;2022-09-03T08:30:37;18.30;1.00
5492;DHT22;2768;53.540;10.224;2022-09-03T08:36:33;18.50;1.00
5492;DHT22;2768;53.540;10.224;2022-09-03T08:42:36;18.70;1.00
5492;DHT22;2768;53.540;10.224;2022-09-03T08:48:32;19.00;1.00
5492;DHT22;2768;53.540;10.224;2022-09-03T08:54:29;19.10;1.00
5492;DHT22;2768;53.540;10.224;2022-09-03T09:00:23;19.30;1.00
5492;DHT22;2768;53.540;10.224;2022-09-03T09:06:22;19.50;1.00
5492;DHT22;2768;53.540;10.224;2022-09-03T09:12:28;19.50;1.00
5492;DHT22;2768;53.540;10.224;2022-09-03T09:18:49;19.70;1.00
5492;DHT22;2768;53.540;10.224;2022-09-03T09:24:46;19.60;1.00
5492;DHT22;2768;53.540;10.224;2022-09-03T09:30:43;19.90;1.00
5492;DHT22;2768;53.540;10.224;2022-09-03T09:36:42;20.20;1.00
5492;DHT22;2768;53.540;10.224;2022-09-03T09:42:38;20.50;1.00
5492;DHT22;2768;53.540;10.224;2022-09-03T09:48:37;20.70;1.00
5492;DHT22;2768;53.540;10.224;2022-09-03T09:54:31;20.80;1.00
5492;DHT22;2768;53.540;10.224;2022-09-03T10:00:25;21.10;1.00
5492;DHT22;2768;53.540;10.224;2022-09-03T10:06:22;21.00;1.00
5492;DHT22;2768;53.540;10.224;2022-09-03T10:12:36;21.20;1.00
5492;DHT22;2768;53.540;10.224;2022-09-03T10:18:41;21.40;1.00
5492;DHT22;2768;53.540;10.224;2022-09-03T10:24:46;21.60;1.00
5492;DHT22;2768;53.540;10.224;2022-09-03T10:30:55;21.90;1.00
5492;DHT22;2768;53.540;10.224;2022-09-03T10:37:01;22.40;1.00
5492;DHT22;2768;53.540;10.224;2022-09-03T10:43:12;22.60;1.00
5492;DHT22;2768;53.540;10.224;2022-09-03T10:49:23;22.60;1.00
5492;DHT22;2768;53.540;10.224;2022-09-03T10:55:22;23.00;1.00
5492;DHT22;2768;53.540;10.224;2022-09-03T11:01:26;23.30;1.00
5492;DHT22;2768;53.540;10.224;2022-09-03T11:07:24;23.10;1.00
5492;DHT22;2768;53.540;10.224;2022-09-03T11:13:23;23.40;1.00
5492;DHT22;2768;53.540;10.224;2022-09-03T11:19:22;23.40;1.00
5492;DHT22;2768;53.540;10.224;2022-09-03T11:25:29;23.70;1.00
5492;DHT22;2768;53.540;10.224;2022-09-03T11:31:32;23.60;1.00
5492;DHT22;2768;53.540;10.224;2022-09-03T11:37:30;23.10;1.00
5492;DHT22;2768;53.540;10.224;2022-09-03T11:43:27;23.20;1.00
5492;DHT22;2768;53.540;10.224;2022-09-03T11:49:29;23.30;1.00
5492;DHT22;2768;53.540;10.224;2022-09-03T11:55:29;23.60;1.00
5492;DHT22;2768;53.540;10.224;2022-09-03T12:01:43;23.60;1.00
5492;DHT22;2768;53.540;10.224;2022-09-03T12:07:49;23.60;1.00
5492;DHT22;2768;53.540;10.224;2022-09-03T12:13:53;24.20;1.00
5492;DHT22;2768;53.540;10.224;2022-09-03T12:19:51;24.60;1.00
5492;DHT22;2768;53.540;10.224;2022-09-03T12:25:45;24.90;1.00
5492;DHT22;2768;53.540;10.224;2022-09-03T12:31:45;24.40;1.00
5492;DHT22;2768;53.540;10.224;2022-09-03T12:37:42;24.30;1.00
5492;DHT22;2768;53.540;10.224;2022-09-03T12:43:58;24.70;1.00
5492;DHT22;2768;53.540;10.224;2022-09-03T12:49:56;25.20;1.00
5492;DHT22;2768;53.540;10.224;2022-09-03T12:55:52;25.40;1.00
5492;DHT22;2768;53.540;10.224;2022-09-03T13:01:49;25.00;1.00
5492;DHT22;2768;53.540;10.224;2022-09-03T13:07:48;24.10;1.00
5492;DHT22;2768;53.540;10.224;2022-09-03T13:13:53;24.00;1.00
5492;DHT22;2768;53.540;10.224;2022-09-03T13:20:10;23.80;1.00
5492;DHT22;2768;53.540;10.224;2022-09-03T13:26:18;23.70;1.00
5492;DHT22;2768;53.540;10.224;2022-09-03T13:32:23;24.10;1.00
5492;DHT22;2768;53.540;10.224;2022-09-03T13:38:24;24.40;1.00
5492;DHT22;2768;53.540;10.224;2022-09-03T13:44:28;24.90;1.00
5492;DHT22;2768;53.540;10.224;2022-09-03T13:50:33;24.50;1.00
5492;DHT22;2768;53.540;10.224;2022-09-03T13:56:46;24.40;1.00
5492;DHT22;2768;53.540;10.224;2022-09-03T14:02:52;24.70;1.00
5492;DHT22;2768;53.540;10.224;2022-09-03T14:08:58;25.20;1.00
5492;DHT22;2768;53.540;10.224;2022-09-03T14:14:56;25.30;1.00
5492;DHT22;2768;53.540;10.224;2022-09-03T14:20:57;25.50;1.00
5492;DHT22;2768;53.540;10.224;2022-09-03T14:26:53;25.60;1.00
5492;DHT22;2768;53.540;10.224;2022-09-03T14:32:53;26.00;1.00
5492;DHT22;2768;53.540;10.224;2022-09-03T14:39:21;25.90;1.00
5492;DHT22;2768;53.540;10.224;2022-09-03T14:45:34;25.90;1.00
5492;DHT22;2768;53.540;10.224;2022-09-03T14:51:45;25.70;1.00
5492;DHT22;2768;53.540;10.224;2022-09-03T14:57:59;25.90;1.00
5492;DHT22;2768;53.540;10.224;2022-09-03T15:10:25;25.20;1.00
5492;DHT22;2768;53.540;10.224;2022-09-03T15:16:33;24.70;1.00
5492;DHT22;2768;53.540;10.224;2022-09-03T15:22:36;24.50;1.00
5492;DHT22;2768;53.540;10.224;2022-09-03T15:28:54;24.40;1.00
5492;DHT22;2768;53.540;10.224;2022-09-03T15:35:04;24.30;1.00
5492;DHT22;2768;53.540;10.224;2022-09-03T15:41:01;24.20;1.00
5492;DHT22;2768;53.540;10.224;2022-09-03T15:46:59;24.20;1.00
5492;DHT22;2768;53.540;10.224;2022-09-03T15:53:24;24.10;1.00
5492;DHT22;2768;53.540;10.224;2022-09-03T15:59:27;23.70;1.00
5492;DHT22;2768;53.540;10.224;2022-09-03T16:05:35;23.40;1.00
5492;DHT22;2768;53.540;10.224;2022-09-03T16:11:38;23.30;1.00
5492;DHT22;2768;53.540;10.224;2022-09-03T16:17:35;23.30;1.00
5492;DHT22;2768;53.540;10.224;2022-09-03T16:23:35;23.20;1.00
5492;DHT22;2768;53.540;10.224;2022-09-03T16:29:31;23.10;1.00
5492;DHT22;2768;53.540;10.224;2022-09-03T16:35:33;23.00;1.00
5492;DHT22;2768;53.540;10.224;2022-09-03T16:41:34;22.90;1.00
5492;DHT22;2768;53.540;10.224;2022-09-03T16:47:36;22.90;1.00
5492;DHT22;2768;53.540;10.224;2022-09-03T16:53:47;22.70;1.00
5492;DHT22;2768;53.540;10.224;2022-09-03T17:00:03;22.60;1.00
5492;DHT22;2768;53.540;10.224;2022-09-03T17:06:40;22.40;1.00
5492;DHT22;2768;53.540;10.224;2022-09-03T17:12:38;22.40;1.00
5492;DHT22;2768;53.540;10.224;2022-09-03T17:18:49;22.30;1.00
5492;DHT22;2768;53.540;10.224;2022-09-03T17:24:45;22.20;1.00
5492;DHT22;2768;53.540;10.224;2022-09-03T17:30:56;22.10;1.00
5492;DHT22;2768;53.540;10.224;2022-09-03T17:36:58;22.00;1.00
5492;DHT22;2768;53.540;10.224;2022-09-03T17:42:58;21.90;1.00
5492;DHT22;2768;53.540;10.224;2022-09-03T17:48:52;21.90;1.00
5492;DHT22;2768;53.540;10.224;2022-09-03T17:54:48;21.80;1.00
5492;DHT22;2768;53.540;10.224;2022-09-03T18:00:51;21.70;1.00
5492;DHT22;2768;53.540;10.224;2022-09-03T18:06:52;21.60;1.00
5492;DHT22;2768;53.540;10.224;2022-09-03T18:12:53;21.60;1.00
5492;DHT22;2768;53.540;10.224;2022-09-03T18:19:01;21.40;1.00
5492;DHT22;2768;53.540;10.224;2022-09-03T18:24:57;21.30;1.00
5492;DHT22;2768;53.540;10.224;2022-09-03T18:31:12;21.20;1.00
5492;DHT22;2768;53.540;10.224;2022-09-03T18:37:27;21.10;1.00
5492;DHT22;2768;53.540;10.224;2022-09-03T18:43:44;21.00;1.00
5492;DHT22;2768;53.540;10.224;2022-09-03T18:50:03;20.90;1.00
5492;DHT22;2768;53.540;10.224;2022-09-03T18:56:24;20.70;1.00
5492;DHT22;2768;53.540;10.224;2022-09-03T19:02:50;20.50;1.00
5492;DHT22;2768;53.540;10.224;2022-09-03T19:09:10;20.40;1.00
5492;DHT22;2768;53.540;10.224;2022-09-03T19:15:28;20.30;1.00
5492;DHT22;2768;53.540;10.224;2022-09-03T19:21:43;20.10;1.00
5492;DHT22;2768;53.540;10.224;2022-09-03T19:28:08;20.20;1.00
5492;DHT22;2768;53.540;10.224;2022-09-03T19:34:44;20.10;1.00
5492;DHT22;2768;53.540;10.224;2022-09-03T19:41:07;20.10;1.00
5492;DHT22;2768;53.540;10.224;2022-09-03T19:47:29;20.00;1.00
5492;DHT22;2768;53.540;10.224;2022-09-03T19:53:44;19.90;1.00
5492;DHT22;2768;53.540;10.224;2022-09-03T19:59:57;19.80;1.00
5492;DHT22;2768;53.540;10.224;2022-09-03T20:06:21;19.80;1.00
5492;DHT22;2768;53.540;10.224;2022-09-03T20:12:36;19.60;1.00
5492;DHT22;2768;53.540;10.224;2022-09-03T20:18:38;19.60;1.00
5492;DHT22;2768;53.540;10.224;2022-09-03T20:24:43;19.60;1.00
5492;DHT22;2768;53.540;10.224;2022-09-03T20:30:45;19.50;1.00
5492;DHT22;2768;53.540;10.224;2022-09-03T20:36:43;19.30;1.00
5492;DHT22;2768;53.540;10.224;2022-09-03T20:49:16;19.20;1.00
5492;DHT22;2768;53.540;10.224;2022-09-03T20:55:19;19.00;1.00
5492;DHT22;2768;53.540;10.224;2022-09-03T21:01:19;19.00;1.00
5492;DHT22;2768;53.540;10.224;2022-09-03T21:07:19;19.00;1.00
5492;DHT22;2768;53.540;10.224;2022-09-03T21:13:22;19.10;1.00
5492;DHT22;2768;53.540;10.224;2022-09-03T21:19:23;19.10;1.00
5492;DHT22;2768;53.540;10.224;2022-09-03T21:25:24;19.00;1.00
5492;DHT22;2768;53.540;10.224;2022-09-03T21:31:25;18.90;1.00
5492;DHT22;2768;53.540;10.224;2022-09-03T21:37:23;18.70;1.00
5492;DHT22;2768;53.540;10.224;2022-09-03T21:43:22;18.60;1.00
5492;DHT22;2768;53.540;10.224;2022-09-03T21:49:23;18.70;1.00
5492;DHT22;2768;53.540;10.224;2022-09-03T21:55:20;18.50;1.00
5492;DHT22;2768;53.540;10.224;2022-09-03T22:01:20;18.60;1.00
5492;DHT22;2768;53.540;10.224;2022-09-03T22:07:24;18.60;1.00
5492;DHT22;2768;53.540;10.224;2022-09-03T22:13:27;18.40;1.00
5492;DHT22;2768;53.540;10.224;2022-09-03T22:19:22;18.40;1.00
5492;DHT22;2768;53.540;10.224;2022-09-03T22:25:19;18.30;1.00
5492;DHT22;2768;53.540;10.224;2022-09-03T22:31:22;18.30;1.00
5492;DHT22;2768;53.540;10.224;2022-09-03T22:37:27;18.20;1.00
5492;DHT22;2768;53.540;10.224;2022-09-03T22:43:35;18.20;1.00
5492;DHT22;2768;53.540;10.224;2022-09-03T22:49:39;18.20;1.00
5492;DHT22;2768;53.540;10.224;2022-09-03T22:55:37;18.20;1.00
5492;DHT22;2768;53.540;10.224;2022-09-03T23:01:37;18.10;1.00
5492;DHT22;2768;53.540;10.224;2022-09-03T23:07:42;18.10;1.00
5492;DHT22;2768;53.540;10.224;2022-09-03T23:13:41;18.00;1.00
5492;DHT22;2768;53.540;10.224;2022-09-03T23:19:38;18.10;1.00
5492;DHT22;2768;53.540;10.224;2022-09-03T23:25:35;18.20;1.00
5492;DHT22;2768;53.540;10.224;2022-09-03T23:31:31;17.90;1.00
5492;DHT22;2768;53.540;10.224;2022-09-03T23:37:36;17.90;1.00
5492;DHT22;2768;53.540;10.224;2022-09-03T23:50:29;17.90;1.00
5492;DHT22;2768;53.540;10.224;2022-09-03T23:56:44;17.90;1.00
